Impacts TAF Board
For situational awareness. Not to be used for flight planning purposes.
IDs:

KGCK - Garden City Rgnl, KS, US

Issued at 1720 UTC 08 Aug 2020
Updated at 2102 UTC 08 Aug 2020
Potential Impact None Slight Moderate High
Time2054Z 08/22Z 08/23Z 09/00Z 09/01Z 09/02Z 09/03Z 09/04Z 09/05Z 09/06Z 09/07Z 09/08Z 09/09Z 09/10Z>>
Type OBS PRVL PRVL PRVL PRVL PRVL PRVL PRVL PRVL PRVL PRVL PRVL PRVL PRVL
VIS 10 >6 >6 >6 >6 >6 >6 >6 >6 >6 >6 >6 >6 >6
CIG -- -- -- -- -- -- -- -- -- -- -- -- -- --
Cover CLR SCT SCT SCT SCT SCT SCT FEW FEW FEW FEW FEW FEW FEW
FltCat VFR VFR VFR VFR VFR VFR VFR VFR VFR VFR VFR VFR VFR VFR
WX -- -- -- -- -- -- -- -- -- -- -- -- -- --
WDir 160 190 190 190 190 190 190 170 170 170 170 170 170 170
WSpd 13 13 13 13 13 13 13 13 13 13 13 13 13 13
WGst 23 22 22 22 22 22 22 -- -- -- -- -- -- --
Raw TAF
KGCK 081720Z 0818/0918 19013G22KT P6SM SCT100
  FM090400 17013KT P6SM FEW250 WS020/22050KT
  FM091100 20011KT P6SM FEW250


Raw METAR
KGCK 082054Z 16013G23KT 10SM CLR 34/18 A2992 RMK AO2 PK WND 15027/2007 SLP092 T03390178 58010
KGCK 081954Z 16015G29KT 10SM CLR 33/18 A2994 RMK AO2 PK WND 15029/1950 SLP098 T03280178
KGCK 081854Z 18017G23KT 10SM CLR 31/19 A2995 RMK AO2 SLP100 T03110194

METAR Board
Radar Display
Forecast Discussion
For situational awareness. Not to be used for flight planning purposes.